KMKC

Charles B Wheeler Downtown Airport

Kansas City, Missouri, USA
METAR KMKC 190854Z 20004KT 10SM CLR 26/20 A2989 RMK AO2 SLP111 T02560200 50000
Observed Flight Rules
Sep-19 @ 08:54 UTC (10 minutes ago) Visual Flight Rules
Wind Visibility Clouds
200° at 4 knots 10 miles
  • Clear skies
Temperatures Readings
Current 26°C / 79°F
Dewpoint 20°C / 68°F
Humidity 70%
Altimeter 29.89" Hg
Pressure 1011.1 hPa
Elevation 227
METAR KMKC 190854Z 20004KT 10SM CLR 26/20 A2989 RMK AO2 SLP111 T02560200 50000
Observed Flight Rules
Sep-19 @ 08:54 UTC
(10 minutes ago)
VFR
Wind Visibility
200° at 4 knots 10 miles
Clouds
  • Clear skies
Temperature Dewpoint
26°C / 79°F 20°C / 68°F
Humidity Altimeter Pressure
70% 29.89" Hg 1011.1 hPa